Clarksville City, Texas
Current Conditions -  °F | °C
As of 4:53 PM on Thursday 23 Oct 2014 (Local Time) from KGGG Reporting Station
Clear Clear  
Wind Chill: 73°   Ceiling: Unl
Heat Index: 73°   Visibility: 10mi
Dew Point: 51°   Wind: 3mph
Humidity: 46%   Direction: NA
Pressure: 30.09"   Gusts: NA
Location:  32.5368°N, 94.8683°W
Report Text: KGGG 232153Z VRB03KT 10SM CLR 23/11 A3009 RMK AO2 SLP187 T02280106
Loading
Personal Weather Stations






























Interactive Weather Map
Tropical Storm Tracking
New forecast layout! Learn more

10-Day Weather Forecast

Advertisements
Track Severe Weather on mobile